Time;durP1;ratioP1;P1;durP2;ratioP2;P2;SDS_P1;SDS_P2;PMS_P1;PMS_P2;Temp;Humidity;BMP_temperature;BMP_pressure;BME280_temperature;BME280_humidity;BME280_pressure;Samples;Min_cycle;Max_cycle;Signal;HPM_P1;HPM_P2
2022/08/05 00:00:20;;;;;;;6.13;4.72;;;;;;;;;;4844844;29;20114;-51
2022/08/05 00:02:48;;;;;;;8.27;4.75;;;;;;;;;;4844278;29;20053;-46
2022/08/05 00:05:19;;;;;;;9.77;5.10;;;;;;;;;;4844502;29;20057;-53
2022/08/05 00:08:08;;;;;;;12.68;7.65;;;;;;;;;;4844470;29;20042;-50
2022/08/05 00:10:57;;;;;;;10.60;5.00;;;;;;;;;;4844312;29;20052;-51
2022/08/05 00:13:30;;;;;;;8.02;5.55;;;;;;;;;;4844551;29;20052;-50
2022/08/05 00:16:12;;;;;;;6.57;4.63;;;;;;;;;;4829196;29;20094;-54
2022/08/05 00:18:44;;;;;;;7.07;6.10;;;;;;;;;;4835555;29;20049;-54
2022/08/05 00:21:17;;;;;;;6.78;5.70;;;;;;;;;;4825672;29;20046;-54
2022/08/05 00:23:46;;;;;;;15.00;5.30;;;;;;;;;;4825884;29;20137;-55
2022/08/05 00:26:33;;;;;;;8.32;5.15;;;;;;;;;;4825813;29;20133;-50
2022/08/05 00:29:00;;;;;;;7.85;5.20;;;;;;;;;;4809464;29;20495;-50
2022/08/05 00:31:28;;;;;;;7.13;5.70;;;;;;;;;;4825543;29;20421;-49
2022/08/05 00:34:15;;;;;;;8.98;6.05;;;;;;;;;;4825551;29;20050;-54
2022/08/05 00:37:02;;;;;;;13.20;6.00;;;;;;;;;;4825575;29;20070;-54
2022/08/05 00:39:46;;;;;;;6.40;5.72;;;;;;;;;;4825662;29;20074;-53
2022/08/05 00:42:36;;;;;;;7.25;5.28;;;;;;;;;;4825706;29;20050;-53
2022/08/05 00:45:06;;;;;;;10.68;6.90;;;;;;;;;;4825535;29;20471;-53
2022/08/05 00:47:35;;;;;;;7.35;6.40;;;;;;;;;;4825490;29;20054;-48
2022/08/05 00:50:22;;;;;;;8.57;6.10;;;;;;;;;;4825401;29;20046;-50
2022/08/05 00:52:52;;;;;;;6.70;5.63;;;;;;;;;;4824951;29;20046;-50
2022/08/05 00:55:22;;;;;;;10.85;6.00;;;;;;;;;;4825557;29;20046;-51
2022/08/05 00:58:12;;;;;;;8.55;5.82;;;;;;;;;;4825359;29;20083;-53
2022/08/05 01:00:40;;;;;;;8.35;6.75;;;;;;;;;;4825325;29;20047;-51
2022/08/05 01:03:09;;;;;;;9.13;6.13;;;;;;;;;;4825180;29;20046;-53
2022/08/05 01:05:52;;;;;;;7.70;5.65;;;;;;;;;;4825265;29;20050;-44
2022/08/05 01:08:21;;;;;;;11.57;7.75;;;;;;;;;;4825358;29;20498;-45
2022/08/05 01:11:22;;;;;;;11.88;7.30;;;;;;;;;;4825031;29;20039;-54
2022/08/05 01:14:32;;;;;;;9.80;5.55;;;;;;;;;;4824967;29;20047;-49
2022/08/05 01:17:20;;;;;;;14.15;5.80;;;;;;;;;;4816840;29;20065;-46
2022/08/05 01:20:29;;;;;;;8.90;6.93;;;;;;;;;;4842064;29;20050;-49
2022/08/05 01:23:20;;;;;;;10.43;6.53;;;;;;;;;;4843538;29;20418;-48
2022/08/05 01:26:04;;;;;;;11.60;6.10;;;;;;;;;;4843142;29;20502;-48
2022/08/05 01:28:37;;;;;;;7.25;6.18;;;;;;;;;;4826565;29;20054;-46
2022/08/05 01:31:14;;;;;;;6.40;5.57;;;;;;;;;;4843154;29;20045;-45
2022/08/05 01:33:48;;;;;;;8.85;6.07;;;;;;;;;;4842799;29;20042;-46
2022/08/05 01:36:24;;;;;;;9.45;6.43;;;;;;;;;;4843154;29;20034;-45
2022/08/05 01:38:56;;;;;;;8.35;7.38;;;;;;;;;;4843041;29;20090;-49
2022/08/05 01:41:32;;;;;;;11.20;6.93;;;;;;;;;;4837438;29;20046;-44
2022/08/05 01:44:01;;;;;;;7.60;5.80;;;;;;;;;;4824805;29;20038;-53
2022/08/05 01:46:30;;;;;;;7.40;5.63;;;;;;;;;;4824684;29;20038;-53
2022/08/05 01:49:12;;;;;;;10.25;6.28;;;;;;;;;;4824454;29;20099;-54
2022/08/05 01:51:58;;;;;;;10.52;7.45;;;;;;;;;;4824600;29;20098;-52
2022/08/05 01:54:50;;;;;;;12.80;8.02;;;;;;;;;;4824456;29;20055;-48
2022/08/05 01:57:24;;;;;;;8.38;7.50;;;;;;;;;;4824410;29;20047;-51
2022/08/05 02:00:12;;;;;;;8.95;6.93;;;;;;;;;;4824569;29;20046;-49
2022/08/05 02:02:47;;;;;;;9.57;6.60;;;;;;;;;;4824402;29;20574;-45
2022/08/05 02:05:24;;;;;;;11.15;7.28;;;;;;;;;;4824534;29;20081;-45
2022/08/05 02:07:54;;;;;;;;;;;;;;;;;;4824902;29;20046;-48
2022/08/05 02:10:28;;;;;;;7.43;5.88;;;;;;;;;;4824314;29;19932;-52
2022/08/05 02:13:02;;;;;;;11.13;7.18;;;;;;;;;;4824081;29;20483;-44
2022/08/05 02:16:09;;;;;;;9.65;6.53;;;;;;;;;;4824163;29;20133;-46
2022/08/05 02:18:49;;;;;;;8.95;7.30;;;;;;;;;;4832774;29;20052;-44
2022/08/05 02:21:26;;;;;;;12.57;7.75;;;;;;;;;;4842083;29;20054;-48
2022/08/05 02:24:02;;;;;;;7.50;6.45;;;;;;;;;;4841791;29;20050;-46
2022/08/05 02:26:49;;;;;;;9.05;7.82;;;;;;;;;;4842245;29;20046;-46
2022/08/05 02:29:22;;;;;;;15.65;11.98;;;;;;;;;;4842105;29;20034;-47
2022/08/05 02:32:12;;;;;;;11.27;7.40;;;;;;;;;;4841826;29;20077;-44
2022/08/05 02:35:00;;;;;;;12.13;9.60;;;;;;;;;;4842247;29;20050;-47
2022/08/05 02:37:42;;;;;;;11.45;7.75;;;;;;;;;;4841939;29;20050;-46
2022/08/05 02:40:21;;;;;;;11.93;7.95;;;;;;;;;;4841938;29;20479;-44
2022/08/05 02:42:52;;;;;;;8.00;6.65;;;;;;;;;;4841665;29;20057;-47
2022/08/05 02:45:22;;;;;;;7.82;6.32;;;;;;;;;;4841945;29;20434;-52
2022/08/05 02:47:53;;;;;;;34.40;22.23;;;;;;;;;;4842015;29;20094;-54
2022/08/05 02:50:46;;;;;;;43.88;26.73;;;;;;;;;;4841757;29;20409;-44
2022/08/05 02:53:17;;;;;;;17.75;11.65;;;;;;;;;;4841500;29;20061;-51
2022/08/05 02:55:51;;;;;;;12.30;9.75;;;;;;;;;;4841733;29;20422;-44
2022/08/05 02:58:26;;;;;;;19.63;10.50;;;;;;;;;;4840586;29;20041;-46
2022/08/05 03:00:59;;;;;;;10.95;7.53;;;;;;;;;;4841659;29;20062;-47
2022/08/05 03:03:29;;;;;;;19.33;12.55;;;;;;;;;;4841395;29;20128;-43
2022/08/05 03:06:18;;;;;;;45.47;29.25;;;;;;;;;;4841518;29;20110;-47
2022/08/05 03:09:06;;;;;;;15.38;9.75;;;;;;;;;;4841542;29;20061;-49
2022/08/05 03:11:33;;;;;;;18.80;12.40;;;;;;;;;;4841435;29;20038;-45
2022/08/05 03:14:20;;;;;;;14.27;11.20;;;;;;;;;;4841151;29;20146;-46
2022/08/05 03:16:48;;;;;;;12.20;6.90;;;;;;;;;;4841641;29;20457;-47
2022/08/05 03:19:19;;;;;;;12.68;6.40;;;;;;;;;;4828095;29;20043;-44
2022/08/05 03:22:00;;;;;;;34.53;24.15;;;;;;;;;;4823363;29;20099;-46
2022/08/05 03:24:31;;;;;;;29.17;19.17;;;;;;;;;;4786997;29;20062;-45
2022/08/05 03:26:59;;;;;;;13.38;8.15;;;;;;;;;;4786187;29;20063;-46
2022/08/05 03:29:27;;;;;;;10.18;5.82;;;;;;;;;;4800931;29;20207;-45
2022/08/05 03:32:15;;;;;;;8.32;5.10;;;;;;;;;;4787190;29;20112;-48
2022/08/05 03:34:46;;;;;;;6.32;4.93;;;;;;;;;;4786825;29;20134;-46
2022/08/05 03:37:19;;;;;;;8.15;5.18;;;;;;;;;;4786890;29;20100;-47
2022/08/05 03:39:54;;;;;;;6.97;5.03;;;;;;;;;;4786882;29;20048;-45
2022/08/05 03:42:27;;;;;;;8.63;4.43;;;;;;;;;;4786745;29;20051;-47
2022/08/05 03:44:58;;;;;;;543.05;315.40;;;;;;;;;;4786706;29;20047;-46
2022/08/05 03:47:27;;;;;;;32.40;18.55;;;;;;;;;;4787036;29;20043;-45
2022/08/05 03:50:01;;;;;;;9.65;5.60;;;;;;;;;;4786867;30;20105;-45
2022/08/05 03:52:33;;;;;;;4.53;3.70;;;;;;;;;;4786674;29;20100;-47
2022/08/05 03:55:27;;;;;;;7.82;3.63;;;;;;;;;;4786654;29;20047;-45
2022/08/05 03:58:18;;;;;;;6.00;3.63;;;;;;;;;;4786699;29;20508;-47
2022/08/05 04:00:48;;;;;;;6.88;3.53;;;;;;;;;;4786650;29;20096;-46
2022/08/05 04:03:20;;;;;;;7.82;3.75;;;;;;;;;;4786534;29;20059;-48
2022/08/05 04:05:57;;;;;;;38.72;25.05;;;;;;;;;;4786604;30;20043;-51
2022/08/05 04:08:28;;;;;;;7.35;4.47;;;;;;;;;;4786718;29;20437;-46
2022/08/05 04:11:06;;;;;;;8.27;3.97;;;;;;;;;;4786564;29;20129;-47
2022/08/05 04:13:39;;;;;;;5.65;3.70;;;;;;;;;;4786600;29;20096;-46
2022/08/05 04:16:18;;;;;;;9.95;3.83;;;;;;;;;;4786524;29;20051;-48
2022/08/05 04:18:52;;;;;;;7.80;3.63;;;;;;;;;;4796357;29;20101;-46
2022/08/05 04:21:26;;;;;;;10.30;3.88;;;;;;;;;;4804831;29;20114;-45
2022/08/05 04:24:15;;;;;;;7.82;3.97;;;;;;;;;;4837161;29;20070;-47
2022/08/05 04:26:48;;;;;;;6.13;3.50;;;;;;;;;;4841897;29;20050;-46
2022/08/05 04:29:15;;;;;;;5.07;3.35;;;;;;;;;;4843966;29;20393;-47
2022/08/05 04:31:43;;;;;;;18.20;8.93;;;;;;;;;;4843195;29;20410;-46
2022/08/05 04:34:14;;;;;;;8.80;4.05;;;;;;;;;;4843891;29;20089;-46
2022/08/05 04:37:00;;;;;;;10.32;4.03;;;;;;;;;;4844037;29;20063;-48
2022/08/05 04:39:30;;;;;;;6.85;3.65;;;;;;;;;;4843969;29;20517;-48
2022/08/05 04:41:58;;;;;;;10.70;3.83;;;;;;;;;;4843886;29;20129;-49
2022/08/05 04:44:27;;;;;;;6.65;3.45;;;;;;;;;;4844013;29;20073;-47
2022/08/05 04:47:00;;;;;;;7.72;4.03;;;;;;;;;;4842688;29;20046;-46
2022/08/05 04:49:38;;;;;;;7.82;3.38;;;;;;;;;;4843768;29;20468;-49
2022/08/05 04:52:25;;;;;;;5.70;3.45;;;;;;;;;;4828262;29;20046;-45
2022/08/05 04:54:53;;;;;;;5.40;2.80;;;;;;;;;;4825564;29;20049;-45
2022/08/05 04:57:24;;;;;;;10.05;3.65;;;;;;;;;;4825581;29;20050;-46
2022/08/05 04:59:56;;;;;;;8.15;3.72;;;;;;;;;;4825548;29;20038;-46
2022/08/05 05:02:26;;;;;;;8.48;4.32;;;;;;;;;;4825308;29;20563;-45
2022/08/05 05:05:07;;;;;;;6.07;3.83;;;;;;;;;;4825046;29;20047;-46
2022/08/05 05:08:05;;;;;;;7.00;3.30;;;;;;;;;;4825536;29;20121;-46
2022/08/05 05:10:52;;;;;;;4.95;2.63;;;;;;;;;;4825460;29;20095;-48
2022/08/05 05:13:22;;;;;;;6.28;3.15;;;;;;;;;;4825455;29;20091;-46
2022/08/05 05:15:49;;;;;;;6.65;3.33;;;;;;;;;;4825033;29;20070;-51
2022/08/05 05:18:25;;;;;;;5.78;3.05;;;;;;;;;;4831888;29;20049;-51
2022/08/05 05:20:57;;;;;;;12.75;6.63;;;;;;;;;;4827424;29;20043;-48
2022/08/05 05:23:26;;;;;;;10.48;5.95;;;;;;;;;;4824913;29;20061;-45
2022/08/05 05:26:13;;;;;;;5.85;3.53;;;;;;;;;;4825128;29;20099;-47
2022/08/05 05:28:41;;;;;;;5.93;3.10;;;;;;;;;;4824810;29;20132;-46
2022/08/05 05:31:12;;;;;;;7.03;3.20;;;;;;;;;;4824722;29;20050;-46
2022/08/05 05:33:41;;;;;;;8.27;2.67;;;;;;;;;;4824689;29;20056;-47
2022/08/05 05:36:27;;;;;;;6.80;3.15;;;;;;;;;;4824801;29;20046;-46
2022/08/05 05:38:56;;;;;;;7.07;2.63;;;;;;;;;;4824557;29;20372;-45
2022/08/05 05:41:24;;;;;;;6.53;2.72;;;;;;;;;;4824841;29;20123;-52
2022/08/05 05:44:06;;;;;;;6.38;2.40;;;;;;;;;;4824610;29;20102;-45
2022/08/05 05:46:54;;;;;;;6.50;2.90;;;;;;;;;;4824783;29;20061;-48
2022/08/05 05:49:24;;;;;;;6.35;2.17;;;;;;;;;;4824789;29;20069;-47
2022/08/05 05:51:51;;;;;;;6.30;2.40;;;;;;;;;;4824672;29;20046;-45
2022/08/05 05:54:19;;;;;;;5.68;2.53;;;;;;;;;;4824240;29;20518;-47
2022/08/05 05:56:47;;;;;;;7.18;2.58;;;;;;;;;;4824541;29;20457;-48
2022/08/05 05:59:16;;;;;;;4.32;2.35;;;;;;;;;;4824334;29;20087;-46
2022/08/05 06:01:43;;;;;;;25.98;17.33;;;;;;;;;;4824311;29;20495;-48
2022/08/05 06:04:23;;;;;;;9.00;3.97;;;;;;;;;;4824616;29;20410;-49
2022/08/05 06:06:51;;;;;;;6.95;2.42;;;;;;;;;;4824168;29;20518;-47
2022/08/05 06:09:18;;;;;;;5.72;2.03;;;;;;;;;;4824386;29;20050;-49
2022/08/05 06:12:06;;;;;;;7.32;2.40;;;;;;;;;;4824265;29;20046;-46
2022/08/05 06:14:36;;;;;;;4.60;2.22;;;;;;;;;;4824200;29;20055;-50
2022/08/05 06:17:06;;;;;;;8.35;2.45;;;;;;;;;;4823901;29;20456;-54
2022/08/05 06:19:53;;;;;;;4.18;2.20;;;;;;;;;;4842017;29;20046;-48
2022/08/05 06:22:29;;;;;;;6.68;2.28;;;;;;;;;;4837594;29;20043;-50
2022/08/05 06:25:20;;;;;;;6.00;2.13;;;;;;;;;;4823995;29;20137;-49
2022/08/05 06:28:07;;;;;;;2.78;1.90;;;;;;;;;;4824000;29;20038;-48
2022/08/05 06:30:47;;;;;;;7.75;2.05;;;;;;;;;;4823066;29;20050;-46
2022/08/05 06:33:15;;;;;;;3.80;1.90;;;;;;;;;;4823758;29;20502;-45
2022/08/05 06:35:47;;;;;;;3.42;1.80;;;;;;;;;;4823566;29;20055;-47
2022/08/05 06:38:33;;;;;;;5.55;2.60;;;;;;;;;;4823828;29;20125;-46
2022/08/05 06:41:04;;;;;;;5.00;1.63;;;;;;;;;;4823820;29;20050;-45
2022/08/05 06:43:34;;;;;;;3.88;1.90;;;;;;;;;;4823878;29;20125;-47
2022/08/05 06:46:21;;;;;;;5.20;1.60;;;;;;;;;;4823895;29;20053;-47
2022/08/05 06:48:55;;;;;;;4.95;1.80;;;;;;;;;;4823155;29;20042;-47
2022/08/05 06:51:25;;;;;;;3.08;1.77;;;;;;;;;;4823862;29;20043;-47
2022/08/05 06:54:01;;;;;;;4.13;1.70;;;;;;;;;;4823527;29;20042;-47
2022/08/05 06:56:29;;;;;;;4.18;1.95;;;;;;;;;;4823701;29;20070;-46
2022/08/05 06:59:03;;;;;;;4.95;1.67;;;;;;;;;;4823295;29;20046;-45
2022/08/05 07:01:34;;;;;;;7.90;2.00;;;;;;;;;;4823723;29;20046;-47
2022/08/05 07:04:02;;;;;;;8.32;2.00;;;;;;;;;;4823455;29;20085;-47
2022/08/05 07:06:30;;;;;;;6.38;2.20;;;;;;;;;;4823796;29;20077;-47
2022/08/05 07:08:58;;;;;;;11.68;2.38;;;;;;;;;;4823384;29;20110;-46
2022/08/05 07:11:32;;;;;;;5.50;2.60;;;;;;;;;;4823210;29;20058;-49
2022/08/05 07:17:00;;;;;;;6.35;2.42;;;;;;;;;;4822645;29;20042;-48
2022/08/05 07:19:49;;;;;;;10.48;2.83;;;;;;;;;;4823187;29;20053;-46
2022/08/05 07:22:37;;;;;;;6.20;2.50;;;;;;;;;;4823140;29;20054;-45
2022/08/05 07:25:08;;;;;;;7.57;2.78;;;;;;;;;;4823253;29;20499;-48
2022/08/05 07:27:55;;;;;;;17.48;10.13;;;;;;;;;;4823322;29;20038;-45
2022/08/05 07:30:34;;;;;;;5.78;2.50;;;;;;;;;;4821777;29;20050;-48
2022/08/05 07:33:08;;;;;;;6.25;2.50;;;;;;;;;;4823142;29;20047;-45
2022/08/05 07:35:42;;;;;;;6.25;2.38;;;;;;;;;;4822963;29;20127;-47
2022/08/05 07:38:30;;;;;;;5.50;2.83;;;;;;;;;;4823011;29;20046;-47
2022/08/05 07:41:06;;;;;;;9.65;3.28;;;;;;;;;;4822882;29;20085;-46
2022/08/05 07:43:54;;;;;;;5.47;2.42;;;;;;;;;;4823146;29;20050;-47
2022/08/05 07:46:24;;;;;;;5.10;3.13;;;;;;;;;;4823325;29;20050;-45
2022/08/05 07:48:55;;;;;;;5.35;2.70;;;;;;;;;;4823138;29;20050;-49
2022/08/05 07:51:33;;;;;;;8.73;2.80;;;;;;;;;;4822975;29;20054;-46
2022/08/05 07:54:06;;;;;;;3.92;2.20;;;;;;;;;;4822869;29;20466;-47
2022/08/05 07:56:37;;;;;;;7.88;3.33;;;;;;;;;;4822978;29;20042;-47
2022/08/05 07:59:24;;;;;;;6.88;2.70;;;;;;;;;;4822908;29;20046;-46
2022/08/05 08:02:09;;;;;;;11.43;7.82;;;;;;;;;;4826006;29;20062;-48
2022/08/05 08:04:46;;;;;;;5.75;2.33;;;;;;;;;;4826215;29;20050;-47
2022/08/05 08:07:18;;;;;;;5.25;2.90;;;;;;;;;;4826013;29;20119;-47
2022/08/05 08:09:50;;;;;;;5.25;2.90;;;;;;;;;;4826080;29;20050;-50
2022/08/05 08:12:21;;;;;;;6.30;2.40;;;;;;;;;;4826079;29;20129;-48
2022/08/05 08:15:08;;;;;;;5.25;2.75;;;;;;;;;;4825896;29;20085;-50
2022/08/05 08:17:45;;;;;;;4.47;2.90;;;;;;;;;;4827077;29;20072;-49
2022/08/05 08:20:22;;;;;;;6.28;2.70;;;;;;;;;;4844430;29;20049;-47
2022/08/05 08:23:10;;;;;;;5.65;2.45;;;;;;;;;;4844063;29;20062;-45
2022/08/05 08:25:58;;;;;;;8.68;2.75;;;;;;;;;;4844301;29;20106;-48
2022/08/05 08:28:31;;;;;;;5.38;2.60;;;;;;;;;;4844108;29;20046;-47
2022/08/05 08:31:06;;;;;;;7.82;2.88;;;;;;;;;;4844021;29;20042;-49
2022/08/05 08:33:34;;;;;;;5.63;2.85;;;;;;;;;;4844234;29;20463;-46
2022/08/05 08:36:07;;;;;;;6.47;3.38;;;;;;;;;;4843834;29;20493;-48
2022/08/05 08:38:57;;;;;;;5.97;2.42;;;;;;;;;;4843973;29;20534;-51
2022/08/05 08:41:28;;;;;;;;;;;;;;;;;;4844523;29;20038;-48
2022/08/05 08:44:20;;;;;;;4.00;2.80;;;;;;;;;;4843899;29;19968;-46
2022/08/05 08:47:08;;;;;;;7.85;2.78;;;;;;;;;;4843622;29;20506;-48
2022/08/05 08:49:57;;;;;;;5.88;2.92;;;;;;;;;;4844071;29;20129;-46
2022/08/05 08:53:00;;;;;;;4.53;2.47;;;;;;;;;;4843744;29;20063;-49
2022/08/05 08:55:34;;;;;;;8.18;4.53;;;;;;;;;;4843633;29;20133;-48
2022/08/05 08:58:23;;;;;;;5.88;2.65;;;;;;;;;;4844028;29;20052;-48
2022/08/05 09:01:05;;;;;;;6.20;2.92;;;;;;;;;;4843489;29;20137;-49
2022/08/05 09:03:37;;;;;;;4.53;2.78;;;;;;;;;;4843631;29;20079;-48
2022/08/05 09:06:06;;;;;;;6.72;2.90;;;;;;;;;;4843412;29;20114;-49
2022/08/05 09:08:39;;;;;;;6.43;3.00;;;;;;;;;;4843514;29;20069;-49
2022/08/05 09:11:11;;;;;;;6.07;2.85;;;;;;;;;;4843468;29;20046;-47
2022/08/05 09:13:41;;;;;;;5.32;2.83;;;;;;;;;;4842992;29;20042;-52
2022/08/05 09:16:28;;;;;;;6.10;2.58;;;;;;;;;;4843186;29;20090;-49
2022/08/05 09:18:56;;;;;;;9.05;2.88;;;;;;;;;;4832934;29;20045;-49
2022/08/05 09:21:27;;;;;;;4.70;2.90;;;;;;;;;;4825232;29;20050;-48
2022/08/05 09:24:14;;;;;;;62.92;43.53;;;;;;;;;;4824725;29;20468;-47
2022/08/05 09:26:47;;;;;;;16.83;12.60;;;;;;;;;;4824879;29;20380;-46
2022/08/05 09:29:18;;;;;;;5.95;3.05;;;;;;;;;;4824800;29;20503;-48
2022/08/05 09:32:02;;;;;;;6.75;2.97;;;;;;;;;;4823874;29;20076;-47
2022/08/05 09:34:55;;;;;;;10.05;3.15;;;;;;;;;;4824867;29;20042;-47
2022/08/05 09:37:24;;;;;;;5.22;2.88;;;;;;;;;;4824668;29;20069;-48
2022/08/05 09:40:36;;;;;;;4.07;2.42;;;;;;;;;;4824582;29;20053;-49
2022/08/05 09:43:09;;;;;;;7.18;2.67;;;;;;;;;;4824697;29;20551;-51
2022/08/05 09:45:39;;;;;;;5.40;2.92;;;;;;;;;;4824378;29;20053;-49
2022/08/05 09:48:29;;;;;;;4.65;2.38;;;;;;;;;;4824927;29;20047;-45
2022/08/05 09:51:05;;;;;;;4.90;2.60;;;;;;;;;;4824668;29;20091;-47
2022/08/05 09:53:50;;;;;;;18.33;15.23;;;;;;;;;;4824530;29;20057;-44
2022/08/05 09:56:26;;;;;;;24.17;21.42;;;;;;;;;;4824524;29;20054;-45
2022/08/05 09:59:03;;;;;;;;;;;;;;;;;;4824925;29;20587;-46
2022/08/05 10:01:32;;;;;;;7.68;3.17;;;;;;;;;;4823579;29;19924;-46
2022/08/05 10:04:04;;;;;;;8.60;3.10;;;;;;;;;;4823349;29;20080;-49
2022/08/05 10:06:41;;;;;;;5.75;3.28;;;;;;;;;;4824214;29;20055;-47
2022/08/05 10:09:24;;;;;;;8.20;2.85;;;;;;;;;;4824607;29;20069;-47
2022/08/05 10:11:54;;;;;;;5.88;2.67;;;;;;;;;;4823322;29;20402;-49
2022/08/05 10:14:28;;;;;;;5.57;2.85;;;;;;;;;;4824224;29;20046;-46
2022/08/05 10:17:24;;;;;;;7.53;2.92;;;;;;;;;;4824139;29;20042;-48
2022/08/05 10:20:06;;;;;;;5.38;2.42;;;;;;;;;;4805945;29;20125;-50
2022/08/05 10:22:39;;;;;;;4.03;2.53;;;;;;;;;;4805823;29;20055;-49
2022/08/05 10:25:18;;;;;;;5.18;2.90;;;;;;;;;;4804779;29;20061;-50
2022/08/05 10:27:46;;;;;;;7.38;2.47;;;;;;;;;;4805925;29;20085;-47
2022/08/05 10:30:35;;;;;;;5.22;2.90;;;;;;;;;;4805749;29;20046;-46
2022/08/05 10:33:24;;;;;;;5.22;2.72;;;;;;;;;;4805652;29;20070;-50
2022/08/05 10:35:57;;;;;;;;;;;;;;;;;;4806116;29;20058;-48
2022/08/05 10:38:27;;;;;;;7.72;2.88;;;;;;;;;;4806013;29;19925;-47
2022/08/05 10:41:26;;;;;;;6.13;2.70;;;;;;;;;;4821183;29;20050;-48
2022/08/05 10:44:16;;;;;;;4.38;2.35;;;;;;;;;;4823729;29;20570;-47
2022/08/05 10:46:51;;;;;;;6.63;2.80;;;;;;;;;;4823764;29;20088;-49
2022/08/05 10:49:22;;;;;;;4.70;2.70;;;;;;;;;;4823694;29;20054;-51
2022/08/05 10:52:01;;;;;;;5.78;2.50;;;;;;;;;;4823698;29;20046;-46
2022/08/05 10:55:01;;;;;;;8.48;2.75;;;;;;;;;;4823546;29;20414;-47
2022/08/05 10:57:28;;;;;;;4.65;2.55;;;;;;;;;;4823804;29;20047;-47
2022/08/05 11:00:21;;;;;;;5.90;2.60;;;;;;;;;;4823700;29;20095;-49
2022/08/05 11:02:58;;;;;;;10.23;3.47;;;;;;;;;;4823473;29;20309;-47
2022/08/05 11:06:10;;;;;;;8.95;3.30;;;;;;;;;;4823538;29;20047;-48
2022/08/05 11:09:28;;;;;;;7.97;2.80;;;;;;;;;;4823398;29;20046;-47
2022/08/05 11:12:38;;;;;;;6.38;2.90;;;;;;;;;;4823391;29;20043;-48
2022/08/05 11:15:14;;;;;;;8.95;3.25;;;;;;;;;;4823220;29;20065;-50
2022/08/05 11:17:53;;;;;;;4.15;2.50;;;;;;;;;;4825167;29;20050;-48
2022/08/05 11:20:40;;;;;;;7.20;2.25;;;;;;;;;;4841530;29;20056;-51
2022/08/05 11:23:28;;;;;;;9.32;2.80;;;;;;;;;;4841216;29;20058;-47
2022/08/05 11:26:08;;;;;;;10.43;2.78;;;;;;;;;;4841009;29;20510;-46
2022/08/05 11:28:37;;;;;;;6.38;2.92;;;;;;;;;;4841351;29;20050;-49
2022/08/05 11:31:06;;;;;;;4.65;2.60;;;;;;;;;;4841289;29;20067;-51
2022/08/05 11:33:50;;;;;;;8.23;2.70;;;;;;;;;;4841441;29;20126;-49
2022/08/05 11:36:21;;;;;;;5.95;2.40;;;;;;;;;;4843434;29;20849;-50
2022/08/05 11:39:08;;;;;;;6.90;2.53;;;;;;;;;;4845012;29;20050;-47
2022/08/05 11:41:36;;;;;;;6.32;2.78;;;;;;;;;;4845082;29;20042;-47
2022/08/05 11:44:31;;;;;;;4.03;2.38;;;;;;;;;;4844943;29;20053;-45
2022/08/05 11:47:22;;;;;;;5.40;2.78;;;;;;;;;;4844866;29;20045;-46
2022/08/05 11:50:09;;;;;;;6.00;2.80;;;;;;;;;;4844960;29;20041;-50
2022/08/05 11:52:40;;;;;;;6.15;2.92;;;;;;;;;;4844698;29;20075;-51
2022/08/05 11:55:14;;;;;;;5.57;2.55;;;;;;;;;;4844845;29;20057;-48
2022/08/05 11:57:45;;;;;;;6.68;2.70;;;;;;;;;;4844744;29;20086;-46
2022/08/05 12:00:33;;;;;;;6.50;2.30;;;;;;;;;;4844700;29;20509;-48
2022/08/05 12:03:16;;;;;;;6.80;2.60;;;;;;;;;;4844480;29;20061;-50
2022/08/05 12:06:01;;;;;;;;;;;;;;;;;;4845374;29;20076;-48
2022/08/05 12:08:29;;;;;;;7.03;2.33;;;;;;;;;;4844765;29;20040;-49
2022/08/05 12:11:03;;;;;;;5.30;2.13;;;;;;;;;;4844482;29;20107;-50
2022/08/05 12:13:33;;;;;;;4.88;2.33;;;;;;;;;;4844453;29;20425;-47
2022/08/05 12:16:19;;;;;;;6.18;2.83;;;;;;;;;;4844540;29;20053;-52
2022/08/05 12:18:53;;;;;;;7.10;2.58;;;;;;;;;;4834065;29;20050;-46
2022/08/05 12:21:29;;;;;;;7.38;2.72;;;;;;;;;;4825990;29;20046;-46
2022/08/05 12:24:06;;;;;;;6.70;3.10;;;;;;;;;;4825795;29;20106;-48
2022/08/05 12:26:36;;;;;;;6.40;3.15;;;;;;;;;;4826834;29;20084;-51
2022/08/05 12:29:23;;;;;;;10.02;3.20;;;;;;;;;;4825539;29;20103;-50
2022/08/05 12:31:57;;;;;;;6.88;3.28;;;;;;;;;;4825814;29;20411;-47
2022/08/05 12:34:36;;;;;;;6.72;2.92;;;;;;;;;;4825872;29;20078;-50
2022/08/05 12:37:10;;;;;;;6.10;3.10;;;;;;;;;;4825660;29;20068;-49
2022/08/05 12:39:49;;;;;;;9.40;2.90;;;;;;;;;;4825848;29;20039;-48
2022/08/05 12:42:19;;;;;;;9.80;2.95;;;;;;;;;;4825740;29;20054;-48
2022/08/05 12:44:50;;;;;;;6.55;3.13;;;;;;;;;;4825391;29;20418;-50
2022/08/05 12:47:29;;;;;;;6.22;2.97;;;;;;;;;;4824619;29;20388;-49
2022/08/05 12:49:58;;;;;;;5.88;2.88;;;;;;;;;;4825705;29;20103;-48
2022/08/05 12:52:33;;;;;;;6.78;2.80;;;;;;;;;;4825432;29;20054;-46
2022/08/05 12:55:17;;;;;;;6.13;2.53;;;;;;;;;;4825242;29;20137;-49
2022/08/05 12:57:51;;;;;;;6.03;2.95;;;;;;;;;;4825562;29;20571;-49
2022/08/05 13:00:42;;;;;;;9.88;2.97;;;;;;;;;;4825397;29;20038;-48
2022/08/05 13:03:29;;;;;;;6.05;2.65;;;;;;;;;;4825217;29;20048;-46
2022/08/05 13:06:01;;;;;;;6.55;2.88;;;;;;;;;;4825552;29;20095;-50
2022/08/05 13:08:29;;;;;;;5.63;2.63;;;;;;;;;;4825368;29;20046;-48
2022/08/05 13:11:01;;;;;;;7.00;2.55;;;;;;;;;;4825347;29;20046;-48
2022/08/05 13:13:30;;;;;;;9.65;2.85;;;;;;;;;;4825287;29;20099;-51
2022/08/05 13:16:19;;;;;;;5.50;2.58;;;;;;;;;;4824991;29;20053;-47
2022/08/05 13:18:53;;;;;;;5.88;2.58;;;;;;;;;;4834917;29;20133;-50
2022/08/05 13:21:25;;;;;;;5.45;2.08;;;;;;;;;;4843449;29;20057;-49
2022/08/05 13:24:05;;;;;;;7.20;2.40;;;;;;;;;;4843351;29;20057;-50
2022/08/05 13:26:35;;;;;;;8.75;2.45;;;;;;;;;;4843297;29;20069;-48
2022/08/05 13:29:04;;;;;;;8.10;2.63;;;;;;;;;;4843114;29;20050;-47
2022/08/05 13:31:32;;;;;;;5.95;2.67;;;;;;;;;;4843363;29;20046;-49
2022/08/05 13:34:19;;;;;;;5.00;2.45;;;;;;;;;;4843204;29;20054;-46
2022/08/05 13:36:53;;;;;;;6.68;2.20;;;;;;;;;;4842419;29;20510;-47
2022/08/05 13:39:20;;;;;;;5.18;2.15;;;;;;;;;;4842849;29;20082;-45
2022/08/05 13:42:08;;;;;;;8.10;2.13;;;;;;;;;;4842896;29;20129;-47
2022/08/05 13:44:42;;;;;;;6.47;2.40;;;;;;;;;;4843026;29;20422;-47
2022/08/05 13:47:15;;;;;;;7.15;2.72;;;;;;;;;;4842886;29;20057;-45
2022/08/05 13:50:04;;;;;;;5.65;2.60;;;;;;;;;;4837871;29;20046;-49
2022/08/05 13:52:37;;;;;;;7.93;2.67;;;;;;;;;;4824317;29;20079;-51
2022/08/05 13:55:07;;;;;;;6.53;2.70;;;;;;;;;;4824258;29;20070;-47
2022/08/05 13:57:36;;;;;;;9.68;3.05;;;;;;;;;;4824282;29;20039;-49
2022/08/05 14:00:20;;;;;;;8.00;2.65;;;;;;;;;;4824302;29;20503;-48
2022/08/05 14:02:56;;;;;;;7.80;2.70;;;;;;;;;;4824401;29;20469;-49
2022/08/05 14:05:27;;;;;;;7.25;2.75;;;;;;;;;;4824401;29;20050;-48
2022/08/05 14:08:15;;;;;;;5.95;3.00;;;;;;;;;;4824275;29;20209;-50
2022/08/05 14:10:54;;;;;;;10.55;2.60;;;;;;;;;;4809753;29;20410;-49
2022/08/05 14:13:41;;;;;;;10.65;3.15;;;;;;;;;;4824299;29;20117;-48
2022/08/05 14:16:14;;;;;;;8.52;3.05;;;;;;;;;;4824139;29;20078;-49
2022/08/05 14:18:45;;;;;;;7.03;2.42;;;;;;;;;;4833040;29;20083;-49
2022/08/05 14:21:12;;;;;;;34.78;18.63;;;;;;;;;;4842180;29;20045;-48
2022/08/05 14:23:59;;;;;;;12.15;5.57;;;;;;;;;;4842067;29;20502;-46
2022/08/05 14:26:27;;;;;;;10.52;2.72;;;;;;;;;;4842471;29;20133;-48
2022/08/05 14:29:05;;;;;;;6.68;2.50;;;;;;;;;;4841761;29;20049;-49
2022/08/05 14:31:43;;;;;;;8.55;2.72;;;;;;;;;;4842023;29;20053;-47
2022/08/05 14:34:30;;;;;;;7.00;2.47;;;;;;;;;;4842092;29;20546;-48
2022/08/05 14:37:03;;;;;;;7.78;2.90;;;;;;;;;;4841687;29;20054;-48
2022/08/05 14:39:32;;;;;;;7.80;3.35;;;;;;;;;;4840692;29;20053;-45
2022/08/05 14:42:21;;;;;;;7.03;2.80;;;;;;;;;;4841845;29;20042;-48
2022/08/05 14:44:50;;;;;;;4.43;2.70;;;;;;;;;;4841835;29;20061;-50
2022/08/05 14:47:18;;;;;;;116.30;74.75;;;;;;;;;;4824114;29;20086;-51
2022/08/05 14:50:08;;;;;;;12.63;3.80;;;;;;;;;;4823576;29;20466;-50
2022/08/05 14:52:45;;;;;;;5.28;2.72;;;;;;;;;;4823785;29;20426;-45
2022/08/05 14:55:26;;;;;;;8.13;3.80;;;;;;;;;;4824105;29;20046;-51
2022/08/05 14:58:09;;;;;;;9.80;4.22;;;;;;;;;;4823306;29;20049;-52
2022/08/05 15:00:40;;;;;;;10.15;6.28;;;;;;;;;;4823785;29;20133;-48
2022/08/05 15:03:27;;;;;;;12.95;5.82;;;;;;;;;;4823655;29;20107;-47
2022/08/05 15:06:05;;;;;;;17.17;9.10;;;;;;;;;;4823283;29;20051;-48
2022/08/05 15:08:42;;;;;;;7.97;4.20;;;;;;;;;;4823490;29;20061;-50
2022/08/05 15:11:31;;;;;;;7.85;3.17;;;;;;;;;;4823132;29;20054;-53
2022/08/05 15:14:19;;;;;;;7.72;3.45;;;;;;;;;;4822599;29;20099;-51
2022/08/05 15:17:06;;;;;;;8.45;3.15;;;;;;;;;;4823146;29;20046;-49
2022/08/05 15:19:53;;;;;;;6.97;3.60;;;;;;;;;;4823364;29;20039;-55
2022/08/05 15:22:21;;;;;;;7.47;3.83;;;;;;;;;;4822979;29;20103;-51
2022/08/05 15:24:53;;;;;;;;;;;;;;;;;;4823415;29;20461;-48
2022/08/05 15:27:21;;;;;;;9.30;2.92;;;;;;;;;;4822927;29;19929;-52
2022/08/05 15:29:52;;;;;;;6.22;3.00;;;;;;;;;;4823204;29;20046;-46
2022/08/05 15:32:25;;;;;;;5.18;2.70;;;;;;;;;;4823147;29;20445;-51
2022/08/05 15:34:55;;;;;;;9.00;2.70;;;;;;;;;;4823132;29;20054;-52
2022/08/05 15:37:25;;;;;;;7.80;2.70;;;;;;;;;;4822932;29;20051;-47
2022/08/05 15:40:13;;;;;;;8.00;2.92;;;;;;;;;;4823122;29;20117;-50
2022/08/05 15:43:00;;;;;;;6.47;2.63;;;;;;;;;;4823315;29;20042;-48
2022/08/05 15:45:46;;;;;;;5.35;2.72;;;;;;;;;;4823045;29;20046;-56